createdAt,value
2018-02-22T00:00:35.792Z,0
2018-02-22T00:01:37.193Z,0
2018-02-22T00:02:38.597Z,0
2018-02-22T00:03:40.057Z,0
2018-02-22T00:04:41.468Z,0
2018-02-22T00:05:42.870Z,0
2018-02-22T00:06:44.323Z,0
2018-02-22T00:07:45.719Z,0
2018-02-22T00:08:47.125Z,0
2018-02-22T00:09:48.510Z,0
2018-02-22T00:10:49.906Z,0
2018-02-22T00:11:51.293Z,0
2018-02-22T00:12:52.678Z,0
2018-02-22T00:13:54.100Z,0
2018-02-22T00:14:55.525Z,0
2018-02-22T00:15:56.933Z,0
2018-02-22T00:16:58.328Z,0
2018-02-22T00:17:59.744Z,0
2018-02-22T00:19:01.133Z,0
2018-02-22T00:20:02.530Z,0
2018-02-22T00:21:03.926Z,0
2018-02-22T00:22:05.315Z,0
2018-02-22T00:23:06.724Z,0
2018-02-22T00:24:08.112Z,0
2018-02-22T00:25:09.538Z,0
2018-02-22T00:26:10.924Z,0
2018-02-22T00:27:12.348Z,0
2018-02-22T00:28:13.743Z,0
2018-02-22T00:29:15.173Z,0
2018-02-22T00:30:16.568Z,0
2018-02-22T00:31:17.968Z,0
2018-02-22T00:32:19.385Z,0
2018-02-22T00:33:20.790Z,0
2018-02-22T00:34:22.200Z,0
2018-02-22T00:35:23.664Z,0
2018-02-22T00:36:25.088Z,0
2018-02-22T00:37:26.527Z,0
2018-02-22T00:38:27.912Z,0
2018-02-22T00:39:29.320Z,0
2018-02-22T00:40:31.227Z,0
2018-02-22T00:41:32.614Z,0
2018-02-22T00:42:34.024Z,0
2018-02-22T00:43:35.402Z,0
2018-02-22T00:44:36.866Z,0
2018-02-22T00:45:38.354Z,0
2018-02-22T00:46:39.911Z,0
2018-02-22T00:47:41.340Z,0
2018-02-22T00:48:42.764Z,0
2018-02-22T00:49:44.176Z,0
2018-02-22T00:50:45.538Z,0
2018-02-22T00:51:46.942Z,0
2018-02-22T00:52:48.345Z,0
2018-02-22T00:53:49.718Z,0
2018-02-22T00:54:51.100Z,0
2018-02-22T00:55:52.505Z,0
2018-02-22T00:56:53.912Z,0
2018-02-22T00:57:55.413Z,0
2018-02-22T00:58:56.804Z,0
2018-02-22T00:59:58.218Z,0
2018-02-22T01:00:59.600Z,0
2018-02-22T01:02:00.998Z,0
2018-02-22T01:03:02.390Z,0
2018-02-22T01:04:03.775Z,0
2018-02-22T01:05:05.157Z,0
2018-02-22T01:06:06.552Z,0
2018-02-22T01:07:07.956Z,0
2018-02-22T01:08:09.418Z,0
2018-02-22T01:09:10.840Z,0
2018-02-22T01:10:12.249Z,0
2018-02-22T01:11:13.631Z,0
2018-02-22T01:12:15.041Z,0
2018-02-22T01:13:16.435Z,0
2018-02-22T01:14:17.816Z,0
2018-02-22T01:15:19.197Z,0
2018-02-22T01:16:20.588Z,0
2018-02-22T01:17:21.980Z,0
2018-02-22T01:18:23.424Z,0
2018-02-22T01:19:24.819Z,0
2018-02-22T01:20:26.236Z,0
2018-02-22T01:21:27.658Z,0
2018-02-22T01:22:29.063Z,0
2018-02-22T01:23:30.490Z,0
2018-02-22T01:24:31.901Z,0
2018-02-22T01:25:33.308Z,0
2018-02-22T01:26:34.700Z,0
2018-02-22T01:27:36.115Z,0
2018-02-22T01:28:37.523Z,0
2018-02-22T01:29:39.024Z,0
2018-02-22T01:30:40.420Z,0
2018-02-22T01:31:41.881Z,0
2018-02-22T01:32:43.327Z,0
2018-02-22T01:33:44.874Z,0
2018-02-22T01:34:46.227Z,0
2018-02-22T01:35:47.618Z,0
2018-02-22T01:36:49.049Z,0
2018-02-22T01:37:50.439Z,0
2018-02-22T01:38:51.828Z,0
2018-02-22T01:39:53.216Z,0
2018-02-22T01:40:54.609Z,0
2018-02-22T01:41:55.989Z,0
2018-02-22T01:42:57.391Z,0
2018-02-22T01:43:58.790Z,0
2018-02-22T01:45:00.184Z,0
2018-02-22T01:46:01.620Z,0
2018-02-22T01:47:03.015Z,0
2018-02-22T01:48:04.417Z,0
2018-02-22T01:49:05.806Z,0
2018-02-22T01:50:07.209Z,0
2018-02-22T01:51:08.593Z,0
2018-02-22T01:52:10.014Z,0
2018-02-22T01:53:11.425Z,0
2018-02-22T01:54:12.825Z,0
2018-02-22T01:55:14.231Z,0
2018-02-22T01:56:15.625Z,0
2018-02-22T01:57:17.052Z,0
2018-02-22T01:58:18.435Z,0
2018-02-22T01:59:19.842Z,0
2018-02-22T02:00:21.229Z,0
2018-02-22T02:01:22.668Z,0
2018-02-22T02:02:24.043Z,0
2018-02-22T02:03:25.457Z,0
2018-02-22T02:04:26.862Z,0
2018-02-22T02:05:28.283Z,0
2018-02-22T02:06:29.668Z,0
2018-02-22T02:07:31.071Z,0
2018-02-22T02:08:32.454Z,0
2018-02-22T02:09:33.849Z,0
2018-02-22T02:10:35.287Z,0
2018-02-22T02:11:36.677Z,0
2018-02-22T02:12:38.077Z,0
2018-02-22T02:13:39.487Z,0
2018-02-22T02:14:40.878Z,0
2018-02-22T02:15:42.262Z,0
2018-02-22T02:16:43.658Z,0
2018-02-22T02:17:45.043Z,0
2018-02-22T02:18:46.429Z,0
2018-02-22T02:19:47.847Z,0
2018-02-22T02:20:49.236Z,0
2018-02-22T02:21:50.725Z,0
2018-02-22T02:22:52.112Z,0
2018-02-22T02:23:53.520Z,0
2018-02-22T02:24:54.941Z,0
2018-02-22T02:25:56.435Z,0
2018-02-22T02:26:57.842Z,0
2018-02-22T02:27:59.224Z,0
2018-02-22T02:29:00.606Z,0
2018-02-22T02:30:02.000Z,0
2018-02-22T02:31:03.419Z,0
2018-02-22T02:32:05.668Z,0
2018-02-22T02:33:07.179Z,0
2018-02-22T02:34:08.582Z,0
2018-02-22T02:35:09.991Z,0
2018-02-22T02:36:11.452Z,0
2018-02-22T02:37:12.843Z,0
2018-02-22T02:38:14.232Z,0
2018-02-22T02:39:15.747Z,0
2018-02-22T02:40:17.144Z,0
2018-02-22T02:41:18.544Z,0
2018-02-22T02:42:19.932Z,0
2018-02-22T02:43:21.425Z,0
2018-02-22T02:44:22.957Z,0
2018-02-22T02:45:24.394Z,0
2018-02-22T02:46:25.794Z,0
2018-02-22T02:47:27.780Z,0
2018-02-22T02:48:29.182Z,0
2018-02-22T02:49:30.565Z,0
2018-02-22T02:50:31.975Z,0
2018-02-22T02:51:33.388Z,0
2018-02-22T02:52:34.765Z,0
2018-02-22T02:53:36.167Z,0
2018-02-22T02:54:37.580Z,0
2018-02-22T02:55:39.081Z,0
2018-02-22T02:56:40.474Z,0
2018-02-22T02:57:41.944Z,0
2018-02-22T02:58:43.344Z,0
2018-02-22T02:59:44.748Z,0
2018-02-22T03:00:46.155Z,0
2018-02-22T03:01:47.543Z,0
2018-02-22T03:02:48.934Z,0
2018-02-22T03:03:50.324Z,0
2018-02-22T03:04:51.742Z,0
2018-02-22T03:05:53.158Z,0
2018-02-22T03:06:54.716Z,0
2018-02-22T03:07:56.226Z,0
2018-02-22T03:08:57.661Z,0
2018-02-22T03:09:59.057Z,0
2018-02-22T03:11:00.458Z,0
2018-02-22T03:12:01.855Z,0
2018-02-22T03:13:03.236Z,0
2018-02-22T03:14:04.625Z,0
2018-02-22T03:15:06.017Z,0
2018-02-22T03:16:46.952Z,0
2018-02-22T03:18:27.819Z,0
2018-02-22T03:19:29.199Z,0
2018-02-22T03:20:30.592Z,0
2018-02-22T03:21:31.983Z,0
2018-02-22T03:22:33.437Z,0
2018-02-22T03:23:34.828Z,0
2018-02-22T03:24:36.214Z,0
2018-02-22T03:25:37.637Z,0
2018-02-22T03:26:39.015Z,0
2018-02-22T03:27:40.405Z,0
2018-02-22T03:28:41.799Z,0
2018-02-22T03:29:43.192Z,0
2018-02-22T03:30:44.649Z,0
2018-02-22T03:31:46.049Z,0
2018-02-22T03:32:47.433Z,0
2018-02-22T03:33:48.882Z,0
2018-02-22T03:34:50.286Z,0
2018-02-22T03:35:51.663Z,0
2018-02-22T03:36:53.051Z,0
2018-02-22T03:37:54.458Z,0
2018-02-22T03:38:55.873Z,0
2018-02-22T03:39:57.271Z,0
2018-02-22T03:40:58.679Z,0
2018-02-22T03:42:00.079Z,0
2018-02-22T03:43:01.492Z,0
2018-02-22T03:44:02.904Z,0
2018-02-22T03:45:04.318Z,0
2018-02-22T03:46:05.782Z,0
2018-02-22T03:47:07.135Z,0
2018-02-22T03:48:08.537Z,0
2018-02-22T03:49:09.914Z,0
2018-02-22T03:50:11.335Z,0
2018-02-22T03:51:12.734Z,0
2018-02-22T03:52:14.121Z,0
2018-02-22T03:53:15.519Z,0
2018-02-22T03:54:16.990Z,0
2018-02-22T03:55:18.368Z,0
2018-02-22T03:56:19.758Z,0
2018-02-22T03:57:21.169Z,0
2018-02-22T03:58:22.556Z,0
2018-02-22T03:59:23.937Z,0
2018-02-22T04:00:25.352Z,0
2018-02-22T04:02:06.397Z,0
2018-02-22T04:03:07.886Z,0
2018-02-22T04:04:09.391Z,0
2018-02-22T04:05:10.804Z,0
2018-02-22T04:06:12.202Z,0
2018-02-22T04:07:13.604Z,0
2018-02-22T04:08:14.986Z,0
2018-02-22T04:09:16.383Z,0
2018-02-22T04:10:17.761Z,0
2018-02-22T04:11:19.161Z,0
2018-02-22T04:12:20.524Z,0
2018-02-22T04:13:22.027Z,0
2018-02-22T04:14:23.417Z,0
2018-02-22T04:15:24.849Z,0
2018-02-22T04:16:26.269Z,0
2018-02-22T04:17:27.678Z,0
2018-02-22T04:18:29.125Z,0
2018-02-22T04:19:30.474Z,0
2018-02-22T04:20:31.864Z,0
2018-02-22T04:21:33.261Z,0
2018-02-22T04:22:34.671Z,0
2018-02-22T04:23:36.070Z,0
2018-02-22T04:24:37.462Z,0
2018-02-22T04:25:38.867Z,0
2018-02-22T04:26:40.305Z,0
2018-02-22T04:27:41.722Z,0
2018-02-22T04:28:43.118Z,0
2018-02-22T04:29:44.522Z,0
2018-02-22T04:30:45.937Z,0
2018-02-22T04:31:47.335Z,0
2018-02-22T04:32:48.734Z,0
2018-02-22T04:33:50.216Z,0
2018-02-22T04:34:51.614Z,0
2018-02-22T04:35:53.015Z,0
2018-02-22T04:36:54.419Z,0
2018-02-22T04:37:55.823Z,0
2018-02-22T04:38:57.255Z,0
2018-02-22T04:39:58.656Z,0
2018-02-22T04:41:00.078Z,0
2018-02-22T04:42:01.477Z,0
2018-02-22T04:43:02.893Z,0
2018-02-22T04:44:04.280Z,0
2018-02-22T04:45:05.727Z,0
2018-02-22T04:46:07.110Z,0
2018-02-22T04:47:08.518Z,0
2018-02-22T04:48:09.940Z,0
2018-02-22T04:49:11.324Z,0
2018-02-22T04:50:12.732Z,0
2018-02-22T04:51:14.122Z,0
2018-02-22T04:52:15.529Z,0
2018-02-22T04:53:16.920Z,0
2018-02-22T04:54:18.309Z,0
2018-02-22T04:55:19.706Z,0
2018-02-22T04:56:21.127Z,0
2018-02-22T04:57:22.523Z,0
2018-02-22T04:58:23.922Z,0
2018-02-22T04:59:25.330Z,0
2018-02-22T05:00:26.752Z,0
2018-02-22T05:01:28.222Z,0
2018-02-22T05:02:29.619Z,0
2018-02-22T05:03:31.079Z,0
2018-02-22T05:04:32.471Z,0
2018-02-22T05:05:33.967Z,0
2018-02-22T05:06:35.351Z,0
2018-02-22T05:07:36.737Z,0
2018-02-22T05:08:38.126Z,0
2018-02-22T05:09:39.523Z,0
2018-02-22T05:10:40.913Z,0
2018-02-22T05:11:42.313Z,0
2018-02-22T05:12:43.706Z,0
2018-02-22T05:13:45.106Z,0
2018-02-22T05:14:46.495Z,0
2018-02-22T05:15:47.878Z,0
2018-02-22T05:16:49.324Z,0
2018-02-22T05:17:50.718Z,0
2018-02-22T05:18:52.107Z,0
2018-02-22T05:19:53.499Z,0
2018-02-22T05:20:55.751Z,0
2018-02-22T05:21:57.135Z,0
2018-02-22T05:22:58.522Z,0
2018-02-22T05:23:59.912Z,0
2018-02-22T05:25:01.314Z,0
2018-02-22T05:26:02.698Z,0
2018-02-22T05:27:04.095Z,0
2018-02-22T05:28:05.558Z,0
2018-02-22T05:29:06.944Z,0
2018-02-22T05:30:08.322Z,0
2018-02-22T05:31:09.747Z,0
2018-02-22T05:32:11.166Z,0
2018-02-22T05:33:12.568Z,0
2018-02-22T05:34:14.008Z,0
2018-02-22T05:35:15.399Z,0
2018-02-22T05:36:16.800Z,0
2018-02-22T05:37:18.191Z,0
2018-02-22T05:38:19.589Z,0
2018-02-22T05:39:21.000Z,0
2018-02-22T05:40:22.389Z,0
2018-02-22T05:41:23.801Z,0
2018-02-22T05:42:25.236Z,0
2018-02-22T05:43:26.663Z,0
2018-02-22T05:44:28.161Z,0
2018-02-22T05:45:29.575Z,0
2018-02-22T05:46:30.964Z,0
2018-02-22T05:47:32.352Z,0
2018-02-22T05:48:33.795Z,0
2018-02-22T05:49:35.228Z,0
2018-02-22T05:50:36.621Z,0
2018-02-22T05:51:38.008Z,0
2018-02-22T05:52:39.480Z,0
2018-02-22T05:53:40.900Z,0
2018-02-22T05:54:42.409Z,0
2018-02-22T05:55:43.806Z,0
2018-02-22T05:56:45.222Z,4
2018-02-22T05:57:46.607Z,4
2018-02-22T05:58:48.016Z,0
2018-02-22T05:59:49.486Z,0
2018-02-22T06:00:50.889Z,0
2018-02-22T06:01:52.282Z,4
2018-02-22T06:02:53.704Z,4
2018-02-22T06:03:55.112Z,0
2018-02-22T06:04:56.540Z,4
2018-02-22T06:05:57.933Z,4
2018-02-22T06:06:59.346Z,4
2018-02-22T06:08:00.753Z,4
2018-02-22T06:09:02.155Z,4
2018-02-22T06:10:03.604Z,8
2018-02-22T06:11:05.054Z,4
2018-02-22T06:12:06.471Z,8
2018-02-22T06:13:07.859Z,8
2018-02-22T06:14:09.268Z,8
2018-02-22T06:15:10.665Z,12
2018-02-22T06:16:12.077Z,8
2018-02-22T06:17:13.472Z,12
2018-02-22T06:18:14.880Z,12
2018-02-22T06:19:16.276Z,16
2018-02-22T06:20:17.758Z,16
2018-02-22T06:21:19.153Z,16
2018-02-22T06:22:20.668Z,16
2018-02-22T06:23:22.092Z,20
2018-02-22T06:24:23.477Z,20
2018-02-22T06:25:24.884Z,24
2018-02-22T06:26:26.272Z,24
2018-02-22T06:27:27.719Z,24
2018-02-22T06:28:29.219Z,28
2018-02-22T06:29:30.637Z,32
2018-02-22T06:30:32.038Z,28
2018-02-22T06:31:33.454Z,32
2018-02-22T06:32:34.858Z,36
2018-02-22T06:33:36.254Z,40
2018-02-22T06:34:37.695Z,44
2018-02-22T06:35:39.071Z,48
2018-02-22T06:36:40.460Z,48
2018-02-22T06:37:41.865Z,48
2018-02-22T06:38:43.284Z,56
2018-02-22T06:39:44.694Z,56
2018-02-22T06:40:46.141Z,60
2018-02-22T06:41:47.529Z,64
2018-02-22T06:42:49.082Z,68
2018-02-22T06:43:50.477Z,68
2018-02-22T06:44:51.861Z,72
2018-02-22T06:45:53.270Z,80
2018-02-22T06:46:54.659Z,80
2018-02-22T06:47:56.061Z,84
2018-02-22T06:48:57.519Z,88
2018-02-22T06:49:58.900Z,92
2018-02-22T06:51:00.304Z,92
2018-02-22T06:52:01.698Z,100
2018-02-22T06:53:03.110Z,100
2018-02-22T06:54:04.498Z,100
2018-02-22T06:55:05.903Z,100
2018-02-22T06:56:07.304Z,104
2018-02-22T06:57:08.822Z,108
2018-02-22T06:58:10.226Z,108
2018-02-22T06:59:51.224Z,116
2018-02-22T07:00:52.716Z,116
2018-02-22T07:01:54.291Z,120
2018-02-22T07:02:55.697Z,128
2018-02-22T07:03:57.098Z,132
2018-02-22T07:04:58.507Z,132
2018-02-22T07:05:59.929Z,136
2018-02-22T07:07:01.311Z,140
2018-02-22T07:08:02.758Z,144
2018-02-22T07:09:04.209Z,152
2018-02-22T07:10:05.608Z,156
2018-02-22T07:11:07.024Z,164
2018-02-22T07:12:08.412Z,172
2018-02-22T07:13:10.050Z,184
2018-02-22T07:14:11.443Z,188
2018-02-22T07:15:12.830Z,188
2018-02-22T07:16:14.258Z,188
2018-02-22T07:17:15.643Z,196
2018-02-22T07:18:17.049Z,196
2018-02-22T07:19:18.455Z,200
2018-02-22T07:20:19.950Z,208
2018-02-22T07:21:21.360Z,212
2018-02-22T07:22:22.778Z,216
2018-02-22T07:23:24.196Z,212
2018-02-22T07:24:26.598Z,216
2018-02-22T07:25:28.015Z,208
2018-02-22T07:26:29.577Z,196
2018-02-22T07:27:30.984Z,196
2018-02-22T07:28:32.423Z,192
2018-02-22T07:29:33.838Z,188
2018-02-22T07:30:35.230Z,192
2018-02-22T07:31:36.618Z,188
2018-02-22T07:32:38.024Z,192
2018-02-22T07:33:39.449Z,188
2018-02-22T07:34:40.838Z,192
2018-02-22T07:35:42.333Z,200
2018-02-22T07:36:43.895Z,204
2018-02-22T07:37:45.332Z,204
2018-02-22T07:38:46.736Z,204
2018-02-22T07:39:48.136Z,208
2018-02-22T07:40:49.544Z,204
2018-02-22T07:41:50.959Z,208
2018-02-22T07:42:52.387Z,212
2018-02-22T07:43:53.792Z,212
2018-02-22T07:44:55.206Z,216
2018-02-22T07:45:56.640Z,216
2018-02-22T07:46:58.038Z,212
2018-02-22T07:47:59.452Z,208
2018-02-22T07:49:00.889Z,204
2018-02-22T07:50:02.312Z,208
2018-02-22T07:51:03.755Z,204
2018-02-22T07:52:05.126Z,208
2018-02-22T07:53:06.608Z,204
2018-02-22T07:54:08.020Z,200
2018-02-22T07:55:09.458Z,200
2018-02-22T07:56:10.878Z,204
2018-02-22T07:57:12.459Z,208
2018-02-22T07:58:14.060Z,224
2018-02-22T07:59:15.665Z,228
2018-02-22T08:00:17.073Z,228
2018-02-22T08:01:18.490Z,228
2018-02-22T08:02:19.887Z,236
2018-02-22T08:03:21.339Z,248
2018-02-22T08:04:22.766Z,260
2018-02-22T08:05:24.185Z,268
2018-02-22T08:06:25.595Z,272
2018-02-22T08:07:27.010Z,292
2018-02-22T08:08:28.441Z,316
2018-02-22T08:09:29.867Z,320
2018-02-22T08:10:31.278Z,320
2018-02-22T08:11:32.719Z,324
2018-02-22T08:12:34.128Z,316
2018-02-22T08:13:35.533Z,324
2018-02-22T08:14:36.929Z,348
2018-02-22T08:15:38.317Z,356
2018-02-22T08:16:39.727Z,360
2018-02-22T08:17:41.155Z,364
2018-02-22T08:18:42.626Z,376
2018-02-22T08:19:44.161Z,376
2018-02-22T08:20:45.628Z,372
2018-02-22T08:21:47.056Z,376
2018-02-22T08:22:48.476Z,376
2018-02-22T08:23:49.899Z,380
2018-02-22T08:24:51.315Z,380
2018-02-22T08:25:52.706Z,380
2018-02-22T08:26:54.113Z,380
2018-02-22T08:27:55.508Z,380
2018-02-22T08:28:56.944Z,384
2018-02-22T08:29:58.443Z,392
2018-02-22T08:30:59.916Z,396
2018-02-22T08:32:01.485Z,404
2018-02-22T08:33:02.926Z,408
2018-02-22T08:34:04.358Z,412
2018-02-22T08:35:05.798Z,424
2018-02-22T08:36:07.224Z,432
2018-02-22T08:37:08.673Z,440
2018-02-22T08:38:10.110Z,444
2018-02-22T08:39:11.705Z,452
2018-02-22T08:40:13.103Z,456
2018-02-22T08:41:14.638Z,460
2018-02-22T08:42:16.057Z,468
2018-02-22T08:43:17.597Z,476
2018-02-22T08:44:19.006Z,488
2018-02-22T08:45:20.399Z,504
2018-02-22T08:46:21.865Z,516
2018-02-22T08:47:23.286Z,524
2018-02-22T08:48:24.709Z,528
2018-02-22T08:49:26.126Z,532
2018-02-22T08:50:27.637Z,540
2018-02-22T08:51:29.125Z,544
2018-02-22T08:52:30.663Z,552
2018-02-22T08:53:32.071Z,560
2018-02-22T08:54:33.472Z,564
2018-02-22T08:55:34.970Z,576
2018-02-22T08:56:36.382Z,584
2018-02-22T08:57:37.782Z,592
2018-02-22T08:58:39.185Z,596
2018-02-22T08:59:40.676Z,608
2018-02-22T09:00:42.064Z,620
2018-02-22T09:01:43.467Z,628
2018-02-22T09:02:44.855Z,636
2018-02-22T09:03:46.358Z,648
2018-02-22T09:04:47.774Z,656
2018-02-22T09:05:49.160Z,672
2018-02-22T09:06:50.553Z,680
2018-02-22T09:07:51.951Z,692
2018-02-22T09:08:53.349Z,696
2018-02-22T09:09:54.768Z,700
2018-02-22T09:10:56.175Z,708
2018-02-22T09:11:57.620Z,720
2018-02-22T09:12:59.032Z,724
2018-02-22T09:14:00.478Z,736
2018-02-22T09:15:01.970Z,744
2018-02-22T09:16:03.381Z,756
2018-02-22T09:17:04.826Z,756
2018-02-22T09:18:06.229Z,772
2018-02-22T09:19:07.624Z,772
2018-02-22T09:20:09.010Z,752
2018-02-22T09:21:10.412Z,752
2018-02-22T09:22:11.818Z,728
2018-02-22T09:23:13.239Z,740
2018-02-22T09:24:14.654Z,748
2018-02-22T09:25:16.074Z,740
2018-02-22T09:26:17.494Z,708
2018-02-22T09:27:18.900Z,720
2018-02-22T09:28:20.334Z,700
2018-02-22T09:29:21.754Z,752
2018-02-22T09:30:23.154Z,720
2018-02-22T09:31:24.573Z,716
2018-02-22T09:32:26.023Z,764
2018-02-22T09:33:27.430Z,748
2018-02-22T09:34:28.852Z,736
2018-02-22T09:35:30.306Z,712
2018-02-22T09:36:31.731Z,740
2018-02-22T09:37:33.190Z,740
2018-02-22T09:38:34.641Z,728
2018-02-22T09:39:36.063Z,696
2018-02-22T09:40:37.521Z,672
2018-02-22T09:41:39.649Z,652
2018-02-22T09:42:41.056Z,640
2018-02-22T09:43:42.463Z,648
2018-02-22T09:44:43.898Z,600
2018-02-22T09:45:45.341Z,576
2018-02-22T09:46:46.732Z,580
2018-02-22T09:47:48.119Z,616
2018-02-22T09:48:49.506Z,624
2018-02-22T09:49:50.915Z,612
2018-02-22T09:50:53.285Z,592
2018-02-22T09:51:54.665Z,600
2018-02-22T09:52:56.089Z,612
2018-02-22T09:53:57.491Z,640
2018-02-22T09:54:58.920Z,636
2018-02-22T09:56:02.090Z,632
2018-02-22T09:57:03.508Z,612
2018-02-22T09:58:04.935Z,616
2018-02-22T09:59:06.338Z,600
2018-02-22T10:00:07.732Z,584
2018-02-22T10:01:09.306Z,608
2018-02-22T10:02:10.991Z,632
2018-02-22T10:03:12.417Z,596
2018-02-22T10:04:13.824Z,620
2018-02-22T10:05:15.221Z,624
2018-02-22T10:06:16.698Z,656
2018-02-22T10:07:18.118Z,656
2018-02-22T10:08:19.535Z,664
2018-02-22T10:09:21.044Z,668
2018-02-22T10:10:22.473Z,684
2018-02-22T10:11:23.948Z,688
2018-02-22T10:12:25.439Z,720
2018-02-22T10:13:26.899Z,668
2018-02-22T10:14:28.580Z,708
2018-02-22T10:15:30.161Z,732
2018-02-22T10:16:32.247Z,700
2018-02-22T10:17:33.668Z,704
2018-02-22T10:18:35.141Z,656
2018-02-22T10:19:36.577Z,688
2018-02-22T10:20:38.027Z,644
2018-02-22T10:21:39.673Z,684
2018-02-22T10:22:41.098Z,736
2018-02-22T10:23:42.512Z,692
2018-02-22T10:24:43.945Z,672
2018-02-22T10:25:45.405Z,660
2018-02-22T10:26:46.951Z,668
2018-02-22T10:27:48.404Z,668
2018-02-22T10:28:49.866Z,724
2018-02-22T10:29:51.346Z,728
2018-02-22T10:30:52.781Z,740
2018-02-22T10:31:54.196Z,744
2018-02-22T10:32:55.687Z,752
2018-02-22T10:33:57.220Z,788
2018-02-22T10:34:58.639Z,828
2018-02-22T10:36:00.055Z,776
2018-02-22T10:37:01.502Z,836
2018-02-22T10:38:03.033Z,844
2018-02-22T10:39:04.666Z,892
2018-02-22T10:40:06.037Z,812
2018-02-22T10:41:07.440Z,692
2018-02-22T10:42:08.859Z,688
2018-02-22T10:43:10.352Z,712
2018-02-22T10:44:11.758Z,672
2018-02-22T10:45:13.198Z,632
2018-02-22T10:46:14.695Z,592
2018-02-22T10:47:16.145Z,560
2018-02-22T10:48:17.562Z,576
2018-02-22T10:49:19.081Z,536
2018-02-22T10:50:20.466Z,532
2018-02-22T10:51:21.892Z,532
2018-02-22T10:52:23.471Z,540
2018-02-22T10:53:25.246Z,528
2018-02-22T10:54:26.644Z,512
2018-02-22T10:55:28.850Z,512
2018-02-22T10:56:30.265Z,516
2018-02-22T10:57:31.696Z,512
2018-02-22T10:58:33.084Z,476
2018-02-22T10:59:34.497Z,492
2018-02-22T11:00:35.920Z,528
2018-02-22T11:01:37.381Z,580
2018-02-22T11:02:38.913Z,580
2018-02-22T11:03:40.359Z,628
2018-02-22T11:04:41.806Z,640
2018-02-22T11:05:43.256Z,680
2018-02-22T11:06:44.662Z,728
2018-02-22T11:07:46.056Z,776
2018-02-22T11:08:47.467Z,792
2018-02-22T11:09:48.868Z,824
2018-02-22T11:10:50.258Z,912
2018-02-22T11:11:51.669Z,988
2018-02-22T11:12:53.101Z,1064
2018-02-22T11:13:54.710Z,1092
2018-02-22T11:14:56.287Z,1128
2018-02-22T11:15:57.775Z,1104
2018-02-22T11:16:59.188Z,1080
2018-02-22T11:18:00.607Z,1108
2018-02-22T11:19:01.989Z,1108
2018-02-22T11:20:03.424Z,1128
2018-02-22T11:21:04.819Z,1280
2018-02-22T11:22:06.317Z,1196
2018-02-22T11:23:07.755Z,1308
2018-02-22T11:24:09.182Z,1252
2018-02-22T11:25:10.681Z,1108
2018-02-22T11:26:12.114Z,1120
2018-02-22T11:27:13.511Z,1208
2018-02-22T11:28:14.942Z,1140
2018-02-22T11:29:16.347Z,1244
2018-02-22T11:30:17.757Z,1296
2018-02-22T11:31:19.159Z,1612
2018-02-22T11:32:20.555Z,1732
2018-02-22T11:33:22.030Z,1420
2018-02-22T11:34:23.379Z,1588
2018-02-22T11:35:24.814Z,2924
2018-02-22T11:36:26.245Z,2036
2018-02-22T11:37:27.641Z,1684
2018-02-22T11:38:29.057Z,1328
2018-02-22T11:39:30.458Z,1388
2018-02-22T11:40:31.859Z,1628
2018-02-22T11:41:33.252Z,1540
2018-02-22T11:42:34.711Z,1448
2018-02-22T11:43:36.116Z,1772
2018-02-22T11:44:37.545Z,1440
2018-02-22T11:45:39.098Z,1532
2018-02-22T11:46:40.597Z,1876
2018-02-22T11:47:41.998Z,1636
2018-02-22T11:48:43.387Z,2340
2018-02-22T11:49:44.813Z,1388
2018-02-22T11:50:46.231Z,1712
2018-02-22T11:51:47.707Z,1528
2018-02-22T11:52:49.170Z,1964
2018-02-22T11:53:50.582Z,1992
2018-02-22T11:54:51.986Z,1204
2018-02-22T11:55:53.376Z,1160
2018-02-22T11:56:54.814Z,1088
2018-02-22T11:57:56.215Z,1164
2018-02-22T11:58:57.873Z,1132
2018-02-22T11:59:59.293Z,1100
2018-02-22T12:01:00.702Z,920
2018-02-22T12:02:02.102Z,852
2018-02-22T12:03:03.546Z,816
2018-02-22T12:04:04.962Z,784
2018-02-22T12:05:06.358Z,788
2018-02-22T12:06:07.760Z,776
2018-02-22T12:07:09.190Z,776
2018-02-22T12:08:10.656Z,748
2018-02-22T12:09:12.049Z,716
2018-02-22T12:10:13.469Z,708
2018-02-22T12:11:14.906Z,708
2018-02-22T12:12:16.313Z,700
2018-02-22T12:13:17.731Z,672
2018-02-22T12:14:19.131Z,668
2018-02-22T12:15:20.616Z,660
2018-02-22T12:16:22.010Z,660
2018-02-22T12:17:23.445Z,668
2018-02-22T12:18:24.938Z,676
2018-02-22T12:19:26.460Z,684
2018-02-22T12:20:27.864Z,720
2018-02-22T12:21:29.306Z,772
2018-02-22T12:22:30.713Z,828
2018-02-22T12:23:32.211Z,928
2018-02-22T12:24:33.595Z,1064
2018-02-22T12:25:35.014Z,1164
2018-02-22T12:26:36.408Z,1236
2018-02-22T12:27:37.799Z,1364
2018-02-22T12:28:39.211Z,1480
2018-02-22T12:29:40.608Z,1784
2018-02-22T12:30:42.052Z,2112
2018-02-22T12:31:43.448Z,2120
2018-02-22T12:32:44.861Z,2040
2018-02-22T12:33:46.263Z,1812
2018-02-22T12:34:47.662Z,1844
2018-02-22T12:35:49.072Z,1540
2018-02-22T12:36:50.477Z,1564
2018-02-22T12:37:51.876Z,1540
2018-02-22T12:38:53.273Z,1396
2018-02-22T12:39:54.743Z,1272
2018-02-22T12:40:56.144Z,1208
2018-02-22T12:41:57.555Z,1240
2018-02-22T12:42:58.983Z,1348
2018-02-22T12:44:00.429Z,1260
2018-02-22T12:45:01.848Z,1568
2018-02-22T12:46:03.244Z,1252
2018-02-22T12:47:04.645Z,1112
2018-02-22T12:48:06.093Z,1276
2018-02-22T12:49:07.497Z,1216
2018-02-22T12:50:08.886Z,1264
2018-02-22T12:51:10.391Z,1244
2018-02-22T12:52:11.773Z,1292
2018-02-22T12:53:13.223Z,1056
2018-02-22T12:54:14.619Z,1020
2018-02-22T12:55:16.046Z,940
2018-02-22T12:56:17.576Z,900
2018-02-22T12:57:18.963Z,940
2018-02-22T12:58:20.373Z,900
2018-02-22T12:59:21.763Z,924
2018-02-22T13:00:23.170Z,956
2018-02-22T13:01:24.566Z,900
2018-02-22T13:02:25.953Z,848
2018-02-22T13:03:27.369Z,852
2018-02-22T13:04:28.800Z,868
2018-02-22T13:05:30.151Z,816
2018-02-22T13:06:31.570Z,792
2018-02-22T13:07:32.976Z,764
2018-02-22T13:08:34.389Z,816
2018-02-22T13:09:35.776Z,796
2018-02-22T13:10:37.163Z,784
2018-02-22T13:11:38.630Z,788
2018-02-22T13:12:40.037Z,816
2018-02-22T13:13:41.432Z,872
2018-02-22T13:14:42.841Z,868
2018-02-22T13:15:44.246Z,872
2018-02-22T13:16:45.631Z,908
2018-02-22T13:17:47.054Z,888
2018-02-22T13:18:48.450Z,916
2018-02-22T13:19:49.854Z,980
2018-02-22T13:20:51.290Z,1056
2018-02-22T13:21:52.765Z,1156
2018-02-22T13:22:54.239Z,1220
2018-02-22T13:23:55.660Z,1188
2018-02-22T13:24:57.059Z,1280
2018-02-22T13:25:58.472Z,1220
2018-02-22T13:26:59.877Z,1152
2018-02-22T13:28:01.267Z,1108
2018-02-22T13:29:02.702Z,1168
2018-02-22T13:30:04.101Z,1120
2018-02-22T13:31:05.540Z,1128
2018-02-22T13:32:06.892Z,1096
2018-02-22T13:33:08.419Z,1120
2018-02-22T13:34:09.923Z,1128
2018-02-22T13:35:11.248Z,1092
2018-02-22T13:36:12.680Z,1128
2018-02-22T13:37:14.081Z,1104
2018-02-22T13:38:15.487Z,1096
2018-02-22T13:39:16.882Z,1120
2018-02-22T13:40:18.276Z,1196
2018-02-22T13:41:19.692Z,1284
2018-02-22T13:42:21.086Z,1304
2018-02-22T13:43:22.596Z,1412
2018-02-22T13:44:24.029Z,1632
2018-02-22T13:45:25.419Z,1360
2018-02-22T13:46:26.826Z,1604
2018-02-22T13:47:28.235Z,1632
2018-02-22T13:48:29.657Z,1520
2018-02-22T13:49:31.063Z,1432
2018-02-22T13:50:32.488Z,1424
2018-02-22T13:51:33.946Z,1472
2018-02-22T13:52:35.977Z,1424
2018-02-22T13:53:37.392Z,1324
2018-02-22T13:54:38.789Z,1280
2018-02-22T13:55:40.203Z,1400
2018-02-22T13:56:41.588Z,1280
2018-02-22T13:57:42.995Z,1280
2018-02-22T13:58:44.409Z,1116
2018-02-22T13:59:45.844Z,1132
2018-02-22T14:00:47.265Z,1244
2018-02-22T14:01:48.671Z,1164
2018-02-22T14:02:50.064Z,1184
2018-02-22T14:03:51.479Z,1236
2018-02-22T14:04:52.887Z,1220
2018-02-22T14:05:54.317Z,1032
2018-02-22T14:06:55.728Z,1004
2018-02-22T14:07:57.127Z,1056
2018-02-22T14:08:58.527Z,888
2018-02-22T14:10:00.094Z,916
2018-02-22T14:11:01.624Z,888
2018-02-22T14:12:03.060Z,764
2018-02-22T14:13:04.533Z,824
2018-02-22T14:14:05.943Z,812
2018-02-22T14:15:07.343Z,792
2018-02-22T14:16:08.931Z,768
2018-02-22T14:17:10.377Z,764
2018-02-22T14:18:11.751Z,772
2018-02-22T14:19:13.146Z,764
2018-02-22T14:20:14.550Z,752
2018-02-22T14:21:15.985Z,732
2018-02-22T14:22:17.393Z,720
2018-02-22T14:23:18.832Z,704
2018-02-22T14:24:20.323Z,720
2018-02-22T14:25:21.743Z,716
2018-02-22T14:26:23.154Z,692
2018-02-22T14:27:24.613Z,676
2018-02-22T14:28:26.142Z,692
2018-02-22T14:29:27.546Z,684
2018-02-22T14:30:28.953Z,676
2018-02-22T14:31:30.359Z,664